POGODA: Poland

Lotnisko: Szczecin-Goleniow

METAR KOD: EPSC


METAR: EPSC 291630Z 08007KT 050V110 9999 -TSRA BKN050CB 25/19 Q1006


BLOK
Pogoda METAR
291630Z
Dzien: 29, Godzina: 16:30 UTC.
08007KT
Wiatr z kierunku 080, o predkosci 13 km/h
050V110
Wiatr zmienny pomiedzy 050 i 110
9999
Widzialnosc pozioma ponad 10 km.
-TSRA
slab. burza deszcz
BKN050CB
5/8 - 7/8 pokrycia nieba, chmurami o podstawie: 1500 metrow, cumulonimbus
25/19
Temperatura: powietrze 25°C, punkt rosy 19°C . Wilgotnosc wzgledna 76 %
Q1006
Cisnienie: 1006 hPa

Pogoda na innym lotnisku

Pogoda Gdansk-Rebiechowo WEATHER Poland  
Pogoda Katowice WEATHER Poland  
Pogoda Krakow WEATHER Poland  
Pogoda Poznan WEATHER Poland  
Pogoda Rzeszow-Jasionka WEATHER Poland  
Pogoda Szczecin WEATHER Poland  
Pogoda Warszawa-Okecie WEATHER Poland  
Pogoda Wroclaw Ii WEATHER Poland  

Pogoda w inny kraju

Strona startowa

(C) by GREGOR 2007
Ogłoszenia Towarzyskie